createdAt,value
2023-03-21T00:01:03.972Z,9.20
2023-03-21T00:03:33.988Z,9.20
2023-03-21T00:06:07.809Z,9.10
2023-03-21T00:08:36.319Z,9.10
2023-03-21T00:11:12.103Z,9.20
2023-03-21T00:13:42.643Z,9.20
2023-03-21T00:16:25.014Z,9.10
2023-03-21T00:18:57.677Z,9.10
2023-03-21T00:24:17.603Z,9.10
2023-03-21T00:26:47.576Z,9.20
2023-03-21T00:29:16.755Z,9.20
2023-03-21T00:31:45.679Z,9.20
2023-03-21T00:34:14.329Z,9.20
2023-03-21T00:36:43.082Z,9.20
2023-03-21T00:39:11.876Z,9.20
2023-03-21T00:41:43.149Z,9.20
2023-03-21T00:44:15.949Z,9.20
2023-03-21T00:47:00.744Z,9.20
2023-03-21T00:49:34.815Z,9.20
2023-03-21T00:52:30.582Z,9.20
2023-03-21T00:54:52.344Z,9.20
2023-03-21T00:57:29.365Z,9.20
2023-03-21T01:00:08.080Z,9.10
2023-03-21T01:02:38.063Z,9.10
2023-03-21T01:05:07.155Z,9.10
2023-03-21T01:07:35.594Z,9.20
2023-03-21T01:10:04.286Z,9.20
2023-03-21T01:12:32.686Z,9.20
2023-03-21T01:15:01.395Z,9.20
2023-03-21T01:17:31.404Z,9.30
2023-03-21T01:20:00.477Z,9.30
2023-03-21T01:22:29.003Z,9.30
2023-03-21T01:25:08.723Z,9.30
2023-03-21T01:27:40.832Z,9.30
2023-03-21T01:30:19.050Z,9.30
2023-03-21T01:32:50.853Z,9.20
2023-03-21T01:35:19.545Z,9.20
2023-03-21T01:37:48.792Z,9.20
2023-03-21T01:40:18.914Z,9.20
2023-03-21T01:42:47.579Z,9.20
2023-03-21T01:45:53.558Z,9.30
2023-03-21T01:48:24.701Z,9.30
2023-03-21T01:50:53.803Z,9.30
2023-03-21T01:53:28.711Z,9.30
2023-03-21T01:55:58.043Z,9.30
2023-03-21T01:58:30.294Z,9.30
2023-03-21T02:01:00.241Z,9.30
2023-03-21T02:03:38.477Z,9.30
2023-03-21T02:06:12.296Z,9.30
2023-03-21T02:08:41.955Z,9.40
2023-03-21T02:11:11.553Z,9.40
2023-03-21T02:13:40.879Z,9.30
2023-03-21T02:16:15.550Z,9.30
2023-03-21T02:18:52.101Z,9.30
2023-03-21T02:21:47.711Z,9.40
2023-03-21T02:25:01.289Z,9.40
2023-03-21T02:27:36.192Z,9.40
2023-03-21T02:30:51.161Z,9.40
2023-03-21T02:33:54.957Z,9.40
2023-03-21T02:36:39.301Z,9.40
2023-03-21T02:39:16.041Z,9.40
2023-03-21T02:41:51.308Z,9.40
2023-03-21T02:44:25.825Z,9.40
2023-03-21T02:47:05.993Z,9.40
2023-03-21T02:49:43.187Z,9.30
2023-03-21T02:52:28.341Z,9.30
2023-03-21T02:55:03.525Z,9.30
2023-03-21T02:57:42.137Z,9.30
2023-03-21T03:00:17.947Z,9.30
2023-03-21T03:02:48.900Z,9.30
2023-03-21T03:05:22.174Z,9.30
2023-03-21T03:08:07.980Z,9.30
2023-03-21T03:10:58.126Z,9.30
2023-03-21T03:13:38.758Z,9.30
2023-03-21T03:16:20.296Z,9.30
2023-03-21T03:18:53.864Z,9.30
2023-03-21T03:21:30.037Z,9.30
2023-03-21T03:24:03.286Z,9.30
2023-03-21T03:26:37.935Z,9.30
2023-03-21T03:29:09.705Z,9.30
2023-03-21T03:31:41.537Z,9.40
2023-03-21T03:34:14.253Z,9.40
2023-03-21T03:36:47.845Z,9.40
2023-03-21T03:39:18.276Z,9.40
2023-03-21T03:44:41.382Z,9.40
2023-03-21T03:47:17.487Z,9.40
2023-03-21T03:49:58.145Z,9.40
2023-03-21T03:52:30.856Z,9.40
2023-03-21T03:55:00.532Z,9.40
2023-03-21T03:57:32.088Z,9.40
2023-03-21T04:00:02.019Z,9.40
2023-03-21T04:02:32.325Z,9.40
2023-03-21T04:05:01.506Z,9.50
2023-03-21T04:07:30.017Z,9.40
2023-03-21T04:09:58.757Z,9.40
2023-03-21T04:12:27.343Z,9.40
2023-03-21T04:15:09.504Z,9.40
2023-03-21T04:17:39.747Z,9.50
2023-03-21T04:20:13.934Z,9.40
2023-03-21T04:22:45.626Z,9.40
2023-03-21T04:25:21.927Z,9.40
2023-03-21T04:27:53.079Z,9.40
2023-03-21T04:30:24.969Z,9.40
2023-03-21T04:32:56.989Z,9.40
2023-03-21T04:35:26.375Z,9.40
2023-03-21T04:37:54.991Z,9.40
2023-03-21T04:40:25.528Z,9.40
2023-03-21T04:42:54.244Z,9.40
2023-03-21T04:45:24.439Z,9.40
2023-03-21T04:47:53.336Z,9.40
2023-03-21T04:50:22.129Z,9.40
2023-03-21T04:52:50.552Z,9.40
2023-03-21T04:55:21.764Z,9.40
2023-03-21T04:57:50.416Z,9.40
2023-03-21T05:00:19.495Z,9.40
2023-03-21T05:02:49.656Z,9.40
2023-03-21T05:05:18.265Z,9.40
2023-03-21T05:07:46.898Z,9.40
2023-03-21T05:10:16.032Z,9.40
2023-03-21T05:12:44.904Z,9.40
2023-03-21T05:15:13.441Z,9.40
2023-03-21T05:17:42.861Z,9.40
2023-03-21T05:20:16.147Z,9.40
2023-03-21T05:22:46.309Z,9.40
2023-03-21T05:25:15.008Z,9.40
2023-03-21T05:27:45.452Z,9.40
2023-03-21T05:30:15.942Z,9.50
2023-03-21T05:32:48.174Z,9.40
2023-03-21T05:35:18.274Z,9.50
2023-03-21T05:37:46.838Z,9.50
2023-03-21T05:40:15.792Z,9.50
2023-03-21T05:42:44.564Z,9.50
2023-03-21T05:45:13.433Z,9.60
2023-03-21T05:47:42.121Z,9.60
2023-03-21T05:50:13.398Z,9.60
2023-03-21T05:52:43.408Z,9.60
2023-03-21T05:55:11.918Z,9.60
2023-03-21T05:57:41.324Z,9.60
2023-03-21T06:00:12.160Z,9.60
2023-03-21T06:02:40.833Z,9.60
2023-03-21T06:05:10.476Z,9.60
2023-03-21T06:07:39.976Z,9.60
2023-03-21T06:10:11.467Z,9.70
2023-03-21T06:12:40.005Z,9.70
2023-03-21T06:15:09.863Z,9.70
2023-03-21T06:17:38.468Z,9.60
2023-03-21T06:20:08.646Z,9.70
2023-03-21T06:22:37.469Z,9.70
2023-03-21T06:25:07.681Z,9.70
2023-03-21T06:27:38.129Z,9.70
2023-03-21T06:30:08.485Z,9.70
2023-03-21T06:32:37.143Z,9.70
2023-03-21T06:35:06.138Z,9.80
2023-03-21T06:37:38.318Z,9.80
2023-03-21T06:40:08.125Z,9.80
2023-03-21T06:42:38.188Z,9.80
2023-03-21T06:45:07.688Z,9.80
2023-03-21T06:47:36.305Z,9.80
2023-03-21T06:50:07.143Z,9.80
2023-03-21T06:52:35.861Z,9.80
2023-03-21T06:55:04.476Z,9.80
2023-03-21T06:57:33.118Z,9.80
2023-03-21T07:00:05.564Z,9.90
2023-03-21T07:02:35.453Z,9.90
2023-03-21T07:05:04.807Z,9.90
2023-03-21T07:07:35.598Z,10.00
2023-03-21T07:10:06.500Z,10.00
2023-03-21T07:12:36.179Z,9.90
2023-03-21T07:15:08.408Z,9.90
2023-03-21T07:17:37.115Z,9.90
2023-03-21T07:20:08.613Z,9.90
2023-03-21T07:22:37.787Z,10.00
2023-03-21T07:25:07.996Z,10.00
2023-03-21T07:27:41.252Z,10.00
2023-03-21T07:30:14.168Z,10.00
2023-03-21T07:32:45.793Z,10.00
2023-03-21T07:35:19.018Z,10.00
2023-03-21T07:37:49.772Z,10.10
2023-03-21T07:40:20.962Z,10.10
2023-03-21T07:42:54.678Z,10.00
2023-03-21T07:45:27.056Z,10.00
2023-03-21T07:47:57.899Z,10.10
2023-03-21T07:50:26.803Z,10.10
2023-03-21T07:52:55.475Z,10.10
2023-03-21T07:55:24.003Z,10.20
2023-03-21T07:57:52.917Z,10.20
2023-03-21T08:00:24.381Z,10.30
2023-03-21T08:03:00.224Z,10.30
2023-03-21T08:05:33.504Z,10.40
2023-03-21T08:08:09.770Z,10.40
2023-03-21T08:10:39.256Z,10.50
2023-03-21T08:13:07.815Z,10.50
2023-03-21T08:15:39.935Z,10.60
2023-03-21T08:18:08.577Z,10.60
2023-03-21T08:20:37.125Z,10.60
2023-03-21T08:23:05.867Z,10.60
2023-03-21T08:25:44.148Z,10.50
2023-03-21T08:28:30.271Z,10.50
2023-03-21T08:31:06.942Z,10.50
2023-03-21T08:33:35.889Z,10.50
2023-03-21T08:36:06.676Z,10.50
2023-03-21T08:38:36.035Z,10.50
2023-03-21T08:41:05.141Z,10.50
2023-03-21T08:43:33.599Z,10.60
2023-03-21T08:46:04.783Z,10.50
2023-03-21T08:48:33.507Z,10.60
2023-03-21T08:51:02.464Z,10.60
2023-03-21T08:53:31.121Z,10.60
2023-03-21T08:56:00.236Z,10.70
2023-03-21T08:58:29.609Z,10.70
2023-03-21T09:00:58.291Z,10.70
2023-03-21T09:03:28.530Z,10.70
2023-03-21T09:05:59.168Z,10.60
2023-03-21T09:08:28.287Z,10.70
2023-03-21T09:10:57.611Z,10.70
2023-03-21T09:13:37.257Z,10.70
2023-03-21T09:16:06.353Z,10.70
2023-03-21T09:18:49.646Z,10.70
2023-03-21T09:21:21.309Z,10.70
2023-03-21T09:23:53.113Z,10.70
2023-03-21T09:26:21.841Z,10.70
2023-03-21T09:28:50.879Z,10.80
2023-03-21T09:31:23.091Z,10.90
2023-03-21T09:33:54.199Z,11.00
2023-03-21T09:36:25.144Z,10.90
2023-03-21T09:38:54.565Z,10.90
2023-03-21T09:41:40.606Z,10.90
2023-03-21T09:44:24.815Z,11.00
2023-03-21T09:47:04.320Z,11.00
2023-03-21T09:49:37.126Z,11.10
2023-03-21T09:52:17.001Z,11.10
2023-03-21T09:54:47.297Z,11.20
2023-03-21T09:57:26.004Z,11.10
2023-03-21T09:59:55.534Z,11.10
2023-03-21T10:02:36.876Z,11.20
2023-03-21T10:05:21.160Z,11.30
2023-03-21T10:07:56.027Z,11.30
2023-03-21T10:10:28.328Z,11.30
2023-03-21T10:12:58.066Z,11.30
2023-03-21T10:15:28.387Z,11.30
2023-03-21T10:18:04.521Z,11.30
2023-03-21T10:20:36.497Z,11.20
2023-03-21T10:23:08.011Z,11.30
2023-03-21T10:25:38.476Z,11.20
2023-03-21T10:28:11.088Z,11.20
2023-03-21T10:30:43.023Z,11.20
2023-03-21T10:33:16.545Z,11.30
2023-03-21T10:35:51.576Z,11.40
2023-03-21T10:38:24.304Z,11.40
2023-03-21T10:40:53.383Z,11.40
2023-03-21T10:43:35.504Z,11.40
2023-03-21T10:46:10.029Z,11.40
2023-03-21T10:48:40.876Z,11.40
2023-03-21T10:51:11.643Z,11.40
2023-03-21T10:53:42.823Z,11.40
2023-03-21T10:56:13.073Z,11.30
2023-03-21T10:58:45.945Z,11.30
2023-03-21T11:01:26.136Z,11.40
2023-03-21T11:03:59.556Z,11.40
2023-03-21T11:06:32.677Z,11.50
2023-03-21T11:09:09.810Z,11.40
2023-03-21T11:11:41.007Z,11.50
2023-03-21T11:14:27.070Z,11.50
2023-03-21T11:16:55.977Z,11.60
2023-03-21T11:19:32.675Z,11.70
2023-03-21T11:22:08.371Z,11.80
2023-03-21T11:24:37.638Z,11.90
2023-03-21T11:27:09.030Z,12.00
2023-03-21T11:29:40.688Z,12.00
2023-03-21T11:32:13.942Z,12.00
2023-03-21T11:34:48.571Z,12.10
2023-03-21T11:37:28.295Z,12.20
2023-03-21T11:40:06.942Z,12.10
2023-03-21T11:42:43.580Z,12.10
2023-03-21T11:45:14.912Z,12.10
2023-03-21T11:47:43.791Z,12.10
2023-03-21T11:50:28.434Z,12.10
2023-03-21T11:53:22.957Z,12.00
2023-03-21T11:56:15.439Z,12.10
2023-03-21T11:58:56.048Z,12.10
2023-03-21T12:01:33.546Z,12.10
2023-03-21T12:04:18.573Z,12.20
2023-03-21T12:06:52.964Z,12.30
2023-03-21T12:09:36.562Z,12.30
2023-03-21T12:12:18.727Z,12.30
2023-03-21T12:14:57.231Z,12.20
2023-03-21T12:17:39.058Z,12.10
2023-03-21T12:20:24.936Z,12.20
2023-03-21T12:23:03.265Z,12.20
2023-03-21T12:25:37.085Z,12.10
2023-03-21T12:28:32.555Z,12.10
2023-03-21T12:31:11.600Z,12.10
2023-03-21T12:34:04.153Z,12.00
2023-03-21T12:36:52.743Z,12.00
2023-03-21T12:39:31.436Z,12.00
2023-03-21T12:42:31.345Z,12.00
2023-03-21T12:45:11.567Z,12.00
2023-03-21T12:47:47.135Z,12.10
2023-03-21T12:50:20.293Z,12.10
2023-03-21T12:52:54.322Z,12.20
2023-03-21T12:55:26.305Z,12.20
2023-03-21T12:58:03.101Z,12.20
2023-03-21T13:00:38.102Z,12.30
2023-03-21T13:03:13.152Z,12.20
2023-03-21T13:05:46.830Z,12.20
2023-03-21T13:08:22.271Z,12.10
2023-03-21T13:10:51.268Z,12.00
2023-03-21T13:13:27.248Z,12.00
2023-03-21T13:16:04.266Z,12.00
2023-03-21T13:19:00.672Z,11.90
2023-03-21T13:21:46.548Z,11.90
2023-03-21T13:24:28.413Z,11.90
2023-03-21T13:27:07.883Z,11.90
2023-03-21T13:29:46.744Z,11.90
2023-03-21T13:32:24.658Z,12.00
2023-03-21T13:34:57.484Z,12.00
2023-03-21T13:37:30.876Z,12.00
2023-03-21T13:40:09.412Z,11.90
2023-03-21T13:42:45.881Z,11.80
2023-03-21T13:45:29.485Z,11.80
2023-03-21T13:47:59.695Z,11.90
2023-03-21T13:50:52.724Z,11.90
2023-03-21T13:53:31.175Z,11.90
2023-03-21T13:56:19.757Z,11.90
2023-03-21T13:59:03.296Z,11.90
2023-03-21T14:01:41.439Z,11.80
2023-03-21T14:04:16.229Z,11.80
2023-03-21T14:06:50.979Z,11.70
2023-03-21T14:09:28.499Z,11.70
2023-03-21T14:12:03.981Z,11.80
2023-03-21T14:14:39.774Z,11.80
2023-03-21T14:17:15.747Z,11.70
2023-03-21T14:19:44.625Z,11.60
2023-03-21T14:22:14.685Z,11.50
2023-03-21T14:24:49.639Z,11.50
2023-03-21T14:27:19.317Z,11.50
2023-03-21T14:29:49.959Z,11.40
2023-03-21T14:32:25.574Z,11.30
2023-03-21T14:34:56.390Z,11.30
2023-03-21T14:37:33.978Z,11.30
2023-03-21T14:40:07.989Z,11.40
2023-03-21T14:42:37.736Z,11.40
2023-03-21T14:45:18.896Z,11.40
2023-03-21T14:48:01.465Z,11.50
2023-03-21T14:50:38.328Z,11.60
2023-03-21T14:53:09.092Z,11.50
2023-03-21T14:55:44.466Z,11.40
2023-03-21T14:58:21.721Z,11.50
2023-03-21T15:00:54.397Z,11.60
2023-03-21T15:03:27.803Z,11.60
2023-03-21T15:05:57.836Z,11.60
2023-03-21T15:08:29.755Z,11.60
2023-03-21T15:11:07.342Z,11.60
2023-03-21T15:13:39.372Z,11.60
2023-03-21T15:16:10.016Z,11.60
2023-03-21T15:18:42.407Z,11.60
2023-03-21T15:21:21.396Z,11.60
2023-03-21T15:23:52.872Z,11.60
2023-03-21T15:26:26.837Z,11.60
2023-03-21T15:28:59.270Z,11.60
2023-03-21T15:31:33.519Z,11.70
2023-03-21T15:34:05.693Z,11.60
2023-03-21T15:36:46.185Z,11.70
2023-03-21T15:39:17.541Z,11.60
2023-03-21T15:42:02.603Z,11.60
2023-03-21T15:44:32.688Z,11.60
2023-03-21T15:47:03.025Z,11.60
2023-03-21T15:49:35.954Z,11.60
2023-03-21T15:52:07.489Z,11.60
2023-03-21T15:54:42.145Z,11.50
2023-03-21T15:57:23.326Z,11.50
2023-03-21T15:59:57.264Z,11.50
2023-03-21T16:02:33.016Z,11.40
2023-03-21T16:05:05.937Z,11.30
2023-03-21T16:07:37.914Z,11.30
2023-03-21T16:10:22.855Z,11.30
2023-03-21T16:12:52.295Z,11.30
2023-03-21T16:15:21.518Z,11.30
2023-03-21T16:18:05.276Z,11.20
2023-03-21T16:20:41.693Z,11.20
2023-03-21T16:23:14.781Z,11.20
2023-03-21T16:25:47.130Z,11.20
2023-03-21T16:28:22.673Z,11.20
2023-03-21T16:30:51.688Z,11.10
2023-03-21T16:33:21.985Z,11.10
2023-03-21T16:35:54.510Z,11.10
2023-03-21T16:38:24.902Z,11.00
2023-03-21T16:40:54.239Z,11.00
2023-03-21T16:43:25.596Z,11.00
2023-03-21T16:45:57.904Z,11.00
2023-03-21T16:48:28.764Z,11.00
2023-03-21T16:50:59.512Z,11.00
2023-03-21T16:53:31.385Z,11.00
2023-03-21T16:56:07.774Z,11.00
2023-03-21T16:58:38.278Z,11.00
2023-03-21T17:01:08.243Z,11.00
2023-03-21T17:03:43.977Z,11.00
2023-03-21T17:06:26.590Z,11.00
2023-03-21T17:08:58.043Z,11.00
2023-03-21T17:11:31.647Z,11.00
2023-03-21T17:14:00.975Z,11.10
2023-03-21T17:16:38.550Z,11.10
2023-03-21T17:19:19.117Z,11.10
2023-03-21T17:21:52.646Z,11.10
2023-03-21T17:24:24.085Z,11.00
2023-03-21T17:26:53.827Z,11.00
2023-03-21T17:29:23.113Z,11.00
2023-03-21T17:31:56.051Z,11.00
2023-03-21T17:34:24.763Z,11.00
2023-03-21T17:36:55.520Z,11.00
2023-03-21T17:39:29.055Z,11.00
2023-03-21T17:42:03.502Z,10.90
2023-03-21T17:44:34.489Z,10.90
2023-03-21T17:47:04.804Z,10.80
2023-03-21T17:49:36.062Z,10.80
2023-03-21T17:52:10.271Z,10.80
2023-03-21T17:54:40.374Z,10.70
2023-03-21T17:57:11.834Z,10.70
2023-03-21T17:59:42.457Z,10.70
2023-03-21T18:02:14.040Z,10.70
2023-03-21T18:04:43.607Z,10.60
2023-03-21T18:07:38.110Z,10.60
2023-03-21T18:10:14.894Z,10.60
2023-03-21T18:12:57.628Z,10.60
2023-03-21T18:15:30.548Z,10.60
2023-03-21T18:18:00.104Z,10.60
2023-03-21T18:20:50.518Z,10.60
2023-03-21T18:23:28.205Z,10.50
2023-03-21T18:26:02.472Z,10.50
2023-03-21T18:28:32.701Z,10.50
2023-03-21T18:31:11.480Z,10.50
2023-03-21T18:33:45.605Z,10.50
2023-03-21T18:36:16.748Z,10.60
2023-03-21T18:38:54.097Z,10.60
2023-03-21T18:41:23.373Z,10.60
2023-03-21T18:44:00.932Z,10.60
2023-03-21T18:46:48.309Z,10.60
2023-03-21T18:52:26.715Z,10.50
2023-03-21T18:54:58.993Z,10.60
2023-03-21T18:57:36.984Z,10.60
2023-03-21T19:00:13.645Z,10.60
2023-03-21T19:02:48.271Z,10.70
2023-03-21T19:05:27.999Z,10.70
2023-03-21T19:08:04.308Z,10.70
2023-03-21T19:10:38.286Z,10.60
2023-03-21T19:13:08.475Z,10.70
2023-03-21T19:15:41.509Z,10.70
2023-03-21T19:18:37.907Z,10.70
2023-03-21T19:21:11.875Z,10.70
2023-03-21T19:26:42.655Z,10.70
2023-03-21T19:29:15.117Z,10.70
2023-03-21T19:31:47.526Z,10.70
2023-03-21T19:34:35.416Z,10.70
2023-03-21T19:37:12.806Z,10.70
2023-03-21T19:39:45.035Z,10.70
2023-03-21T19:42:21.157Z,10.70
2023-03-21T19:44:50.955Z,10.70
2023-03-21T19:47:24.359Z,10.70
2023-03-21T19:50:42.066Z,10.70
2023-03-21T19:52:54.261Z,10.70
2023-03-21T19:55:28.212Z,10.70
2023-03-21T19:58:03.167Z,10.70
2023-03-21T20:00:33.617Z,10.70
2023-03-21T20:03:10.173Z,10.70
2023-03-21T20:05:45.543Z,10.70
2023-03-21T20:08:20.670Z,10.70
2023-03-21T20:10:59.024Z,10.70
2023-03-21T20:13:33.594Z,10.70
2023-03-21T20:16:04.105Z,10.70
2023-03-21T20:18:35.796Z,10.80
2023-03-21T20:21:16.928Z,10.70
2023-03-21T20:23:50.593Z,10.70
2023-03-21T20:26:19.886Z,10.70
2023-03-21T20:29:25.133Z,10.70
2023-03-21T20:31:45.948Z,10.70
2023-03-21T20:34:14.858Z,10.70
2023-03-21T20:36:45.252Z,10.80
2023-03-21T20:39:14.896Z,10.70
2023-03-21T20:41:45.039Z,10.70
2023-03-21T20:44:48.180Z,10.70
2023-03-21T20:47:24.574Z,10.70
2023-03-21T20:49:55.279Z,10.80
2023-03-21T20:55:14.607Z,10.80
2023-03-21T20:57:44.643Z,10.80
2023-03-21T21:00:17.547Z,10.90
2023-03-21T21:02:48.216Z,10.90
2023-03-21T21:05:28.683Z,10.90
2023-03-21T21:07:59.047Z,10.90
2023-03-21T21:10:28.832Z,10.90
2023-03-21T21:12:58.074Z,10.90
2023-03-21T21:15:28.357Z,10.90
2023-03-21T21:18:08.137Z,10.90
2023-03-21T21:20:38.085Z,11.00
2023-03-21T21:23:12.493Z,10.90
2023-03-21T21:25:42.431Z,10.90
2023-03-21T21:28:12.106Z,10.90
2023-03-21T21:30:42.813Z,10.90
2023-03-21T21:33:11.607Z,10.90
2023-03-21T21:35:47.612Z,10.90
2023-03-21T21:38:19.617Z,10.90
2023-03-21T21:40:49.120Z,10.90
2023-03-21T21:43:19.203Z,10.90
2023-03-21T21:45:51.206Z,10.90
2023-03-21T21:48:19.724Z,11.00
2023-03-21T21:50:52.248Z,10.90
2023-03-21T21:53:21.247Z,10.90
2023-03-21T21:55:51.242Z,10.90
2023-03-21T21:58:21.242Z,10.90
2023-03-21T22:00:51.637Z,10.90
2023-03-21T22:03:22.472Z,10.90
2023-03-21T22:05:51.784Z,11.00
2023-03-21T22:08:20.873Z,10.90
2023-03-21T22:10:49.465Z,11.00
2023-03-21T22:13:18.203Z,11.00
2023-03-21T22:15:47.774Z,11.00
2023-03-21T22:18:17.748Z,10.90
2023-03-21T22:20:46.754Z,10.90
2023-03-21T22:23:15.524Z,10.80
2023-03-21T22:25:49.727Z,10.80
2023-03-21T22:28:22.158Z,10.70
2023-03-21T22:30:51.166Z,10.60
2023-03-21T22:33:22.346Z,10.60
2023-03-21T22:35:51.698Z,10.50
2023-03-21T22:38:24.356Z,10.40
2023-03-21T22:40:56.689Z,10.40
2023-03-21T22:43:25.233Z,10.30
2023-03-21T22:45:54.225Z,10.30
2023-03-21T22:48:24.293Z,10.30
2023-03-21T22:50:52.821Z,10.20
2023-03-21T22:53:21.383Z,10.20
2023-03-21T22:55:51.090Z,10.20
2023-03-21T22:58:19.691Z,10.10
2023-03-21T23:00:48.513Z,10.10
2023-03-21T23:03:17.769Z,10.00
2023-03-21T23:05:47.770Z,9.90
2023-03-21T23:08:16.475Z,9.80
2023-03-21T23:10:46.261Z,9.90
2023-03-21T23:13:14.852Z,9.90
2023-03-21T23:15:43.372Z,9.90
2023-03-21T23:18:12.007Z,9.80
2023-03-21T23:20:40.712Z,9.80
2023-03-21T23:23:10.888Z,9.80
2023-03-21T23:25:42.331Z,9.80
2023-03-21T23:28:10.972Z,9.80
2023-03-21T23:30:39.619Z,9.70
2023-03-21T23:33:08.167Z,9.60
2023-03-21T23:35:38.492Z,9.60
2023-03-21T23:38:11.567Z,9.50
2023-03-21T23:40:40.542Z,9.50
2023-03-21T23:43:09.234Z,9.50
2023-03-21T23:45:37.789Z,9.40
2023-03-21T23:48:06.835Z,9.40
2023-03-21T23:50:35.563Z,9.50
2023-03-21T23:53:04.483Z,9.40
2023-03-21T23:55:34.472Z,9.50
2023-03-21T23:58:05.765Z,9.50
